sensor_id;sensor_type;location;lat;lon;timestamp;temperature;humidity
12408;DHT22;6268;48.188;17.134;2023-02-28T00:00:39;2.20;91.60
12408;DHT22;6268;48.188;17.134;2023-02-28T00:03:08;2.30;91.50
12408;DHT22;6268;48.188;17.134;2023-02-28T00:05:37;2.30;91.30
12408;DHT22;6268;48.188;17.134;2023-02-28T00:08:06;2.30;90.60
12408;DHT22;6268;48.188;17.134;2023-02-28T00:10:35;2.30;90.40
12408;DHT22;6268;48.188;17.134;2023-02-28T00:13:06;2.40;90.10
12408;DHT22;6268;48.188;17.134;2023-02-28T00:15:35;2.30;88.90
12408;DHT22;6268;48.188;17.134;2023-02-28T00:18:04;2.30;90.20
12408;DHT22;6268;48.188;17.134;2023-02-28T00:20:32;2.30;90.60
12408;DHT22;6268;48.188;17.134;2023-02-28T00:23:01;2.30;90.20
12408;DHT22;6268;48.188;17.134;2023-02-28T00:25:30;2.20;90.60
12408;DHT22;6268;48.188;17.134;2023-02-28T00:27:59;2.20;90.70
12408;DHT22;6268;48.188;17.134;2023-02-28T00:30:29;2.10;90.60
12408;DHT22;6268;48.188;17.134;2023-02-28T00:32:58;2.20;90.90
12408;DHT22;6268;48.188;17.134;2023-02-28T00:35:27;2.10;90.70
12408;DHT22;6268;48.188;17.134;2023-02-28T00:37:56;2.10;90.50
12408;DHT22;6268;48.188;17.134;2023-02-28T00:40:24;2.10;91.20
12408;DHT22;6268;48.188;17.134;2023-02-28T00:42:53;2.10;91.20
12408;DHT22;6268;48.188;17.134;2023-02-28T00:45:22;2.00;91.50
12408;DHT22;6268;48.188;17.134;2023-02-28T00:47:53;2.00;91.50
12408;DHT22;6268;48.188;17.134;2023-02-28T00:50:22;2.00;91.60
12408;DHT22;6268;48.188;17.134;2023-02-28T00:52:50;2.00;91.90
12408;DHT22;6268;48.188;17.134;2023-02-28T00:55:19;2.00;91.70
12408;DHT22;6268;48.188;17.134;2023-02-28T00:57:48;2.00;91.80
12408;DHT22;6268;48.188;17.134;2023-02-28T01:00:18;1.90;92.40
12408;DHT22;6268;48.188;17.134;2023-02-28T01:02:47;1.90;92.80
12408;DHT22;6268;48.188;17.134;2023-02-28T01:05:17;2.00;93.00
12408;DHT22;6268;48.188;17.134;2023-02-28T01:07:46;2.00;93.10
12408;DHT22;6268;48.188;17.134;2023-02-28T01:10:15;2.00;93.20
12408;DHT22;6268;48.188;17.134;2023-02-28T01:12:44;2.00;93.40
12408;DHT22;6268;48.188;17.134;2023-02-28T01:15:14;2.00;93.40
12408;DHT22;6268;48.188;17.134;2023-02-28T01:17:43;2.00;93.80
12408;DHT22;6268;48.188;17.134;2023-02-28T01:20:12;2.00;93.60
12408;DHT22;6268;48.188;17.134;2023-02-28T01:22:42;2.10;93.70
12408;DHT22;6268;48.188;17.134;2023-02-28T01:25:11;2.00;93.80
12408;DHT22;6268;48.188;17.134;2023-02-28T01:27:40;1.90;94.40
12408;DHT22;6268;48.188;17.134;2023-02-28T01:30:10;1.90;94.30
12408;DHT22;6268;48.188;17.134;2023-02-28T01:32:39;1.80;94.70
12408;DHT22;6268;48.188;17.134;2023-02-28T01:35:08;1.80;95.30
12408;DHT22;6268;48.188;17.134;2023-02-28T01:37:37;1.80;95.70
12408;DHT22;6268;48.188;17.134;2023-02-28T01:40:09;1.80;95.70
12408;DHT22;6268;48.188;17.134;2023-02-28T01:42:39;1.80;96.30
12408;DHT22;6268;48.188;17.134;2023-02-28T01:45:20;1.70;96.80
12408;DHT22;6268;48.188;17.134;2023-02-28T01:47:54;1.80;96.90
12408;DHT22;6268;48.188;17.134;2023-02-28T01:50:28;1.70;96.80
12408;DHT22;6268;48.188;17.134;2023-02-28T01:53:04;1.70;97.70
12408;DHT22;6268;48.188;17.134;2023-02-28T01:55:37;1.60;97.90
12408;DHT22;6268;48.188;17.134;2023-02-28T01:58:07;1.60;98.30
12408;DHT22;6268;48.188;17.134;2023-02-28T02:00:37;1.60;99.00
12408;DHT22;6268;48.188;17.134;2023-02-28T02:03:11;1.70;98.90
12408;DHT22;6268;48.188;17.134;2023-02-28T02:05:43;1.70;98.80
12408;DHT22;6268;48.188;17.134;2023-02-28T02:08:17;1.70;99.30
12408;DHT22;6268;48.188;17.134;2023-02-28T02:10:51;1.60;99.60
12408;DHT22;6268;48.188;17.134;2023-02-28T02:13:39;1.60;99.60
12408;DHT22;6268;48.188;17.134;2023-02-28T02:16:34;1.50;99.70
12408;DHT22;6268;48.188;17.134;2023-02-28T02:19:37;1.50;99.90
12408;DHT22;6268;48.188;17.134;2023-02-28T02:22:33;1.50;99.90
12408;DHT22;6268;48.188;17.134;2023-02-28T02:25:25;1.50;99.90
12408;DHT22;6268;48.188;17.134;2023-02-28T02:31:33;1.40;99.90
12408;DHT22;6268;48.188;17.134;2023-02-28T02:34:28;1.30;99.90
12408;DHT22;6268;48.188;17.134;2023-02-28T02:37:18;1.40;99.90
12408;DHT22;6268;48.188;17.134;2023-02-28T02:40:12;1.30;99.90
12408;DHT22;6268;48.188;17.134;2023-02-28T02:42:48;1.30;99.90
12408;DHT22;6268;48.188;17.134;2023-02-28T02:45:24;1.30;99.90
12408;DHT22;6268;48.188;17.134;2023-02-28T02:47:59;1.40;99.90
12408;DHT22;6268;48.188;17.134;2023-02-28T02:50:34;1.20;99.90
12408;DHT22;6268;48.188;17.134;2023-02-28T02:53:08;1.20;99.90
12408;DHT22;6268;48.188;17.134;2023-02-28T02:55:41;1.20;99.90
12408;DHT22;6268;48.188;17.134;2023-02-28T02:58:16;1.10;99.90
12408;DHT22;6268;48.188;17.134;2023-02-28T03:00:50;1.00;99.90
12408;DHT22;6268;48.188;17.134;2023-02-28T03:03:22;0.90;99.90
12408;DHT22;6268;48.188;17.134;2023-02-28T03:06:00;0.90;99.90
12408;DHT22;6268;48.188;17.134;2023-02-28T03:08:34;0.80;99.90
12408;DHT22;6268;48.188;17.134;2023-02-28T03:11:05;0.80;99.90
12408;DHT22;6268;48.188;17.134;2023-02-28T03:13:55;0.90;99.90
12408;DHT22;6268;48.188;17.134;2023-02-28T03:16:49;0.90;99.90
12408;DHT22;6268;48.188;17.134;2023-02-28T03:19:36;1.00;99.90
12408;DHT22;6268;48.188;17.134;2023-02-28T03:22:23;1.00;99.90
12408;DHT22;6268;48.188;17.134;2023-02-28T03:25:08;1.00;99.90
12408;DHT22;6268;48.188;17.134;2023-02-28T03:27:45;1.00;99.90
12408;DHT22;6268;48.188;17.134;2023-02-28T03:30:26;1.00;99.90
12408;DHT22;6268;48.188;17.134;2023-02-28T03:33:05;1.00;99.90
12408;DHT22;6268;48.188;17.134;2023-02-28T03:35:39;1.00;99.90
12408;DHT22;6268;48.188;17.134;2023-02-28T03:38:17;1.10;99.90
12408;DHT22;6268;48.188;17.134;2023-02-28T03:40:57;1.10;99.90
12408;DHT22;6268;48.188;17.134;2023-02-28T03:43:35;1.10;99.90
12408;DHT22;6268;48.188;17.134;2023-02-28T03:46:10;1.10;99.90
12408;DHT22;6268;48.188;17.134;2023-02-28T03:48:45;1.10;99.90
12408;DHT22;6268;48.188;17.134;2023-02-28T03:51:21;1.00;99.90
12408;DHT22;6268;48.188;17.134;2023-02-28T03:53:58;1.00;99.90
12408;DHT22;6268;48.188;17.134;2023-02-28T03:56:33;1.10;99.90
12408;DHT22;6268;48.188;17.134;2023-02-28T03:59:10;1.00;99.90
12408;DHT22;6268;48.188;17.134;2023-02-28T04:01:44;1.00;99.90
12408;DHT22;6268;48.188;17.134;2023-02-28T04:04:16;1.00;99.90
12408;DHT22;6268;48.188;17.134;2023-02-28T04:06:47;0.90;99.90
12408;DHT22;6268;48.188;17.134;2023-02-28T04:09:19;0.90;99.90
12408;DHT22;6268;48.188;17.134;2023-02-28T04:11:50;0.90;99.90
12408;DHT22;6268;48.188;17.134;2023-02-28T04:14:20;1.00;99.90
12408;DHT22;6268;48.188;17.134;2023-02-28T04:16:49;0.90;99.90
12408;DHT22;6268;48.188;17.134;2023-02-28T04:19:19;0.90;99.90
12408;DHT22;6268;48.188;17.134;2023-02-28T04:21:50;0.80;99.90
12408;DHT22;6268;48.188;17.134;2023-02-28T04:24:23;0.80;99.90
12408;DHT22;6268;48.188;17.134;2023-02-28T04:26:55;0.80;99.90
12408;DHT22;6268;48.188;17.134;2023-02-28T04:29:27;0.80;99.90
12408;DHT22;6268;48.188;17.134;2023-02-28T04:31:59;0.80;99.90
12408;DHT22;6268;48.188;17.134;2023-02-28T04:34:30;0.80;99.90
12408;DHT22;6268;48.188;17.134;2023-02-28T04:37:01;0.70;99.90
12408;DHT22;6268;48.188;17.134;2023-02-28T04:39:42;0.70;99.90
12408;DHT22;6268;48.188;17.134;2023-02-28T04:42:15;0.70;99.90
12408;DHT22;6268;48.188;17.134;2023-02-28T04:44:44;0.70;99.90
12408;DHT22;6268;48.188;17.134;2023-02-28T04:47:12;0.70;99.90
12408;DHT22;6268;48.188;17.134;2023-02-28T04:49:41;0.60;99.90
12408;DHT22;6268;48.188;17.134;2023-02-28T04:52:10;0.60;99.90
12408;DHT22;6268;48.188;17.134;2023-02-28T04:54:41;0.50;99.90
12408;DHT22;6268;48.188;17.134;2023-02-28T04:57:10;0.50;99.90
12408;DHT22;6268;48.188;17.134;2023-02-28T04:59:39;0.50;99.90
12408;DHT22;6268;48.188;17.134;2023-02-28T05:02:08;0.50;99.90
12408;DHT22;6268;48.188;17.134;2023-02-28T05:04:37;0.60;99.90
12408;DHT22;6268;48.188;17.134;2023-02-28T05:07:06;0.50;99.90
12408;DHT22;6268;48.188;17.134;2023-02-28T05:09:34;0.50;99.90
12408;DHT22;6268;48.188;17.134;2023-02-28T05:12:05;0.50;99.90
12408;DHT22;6268;48.188;17.134;2023-02-28T05:14:34;0.50;99.90
12408;DHT22;6268;48.188;17.134;2023-02-28T05:17:03;0.50;99.90
12408;DHT22;6268;48.188;17.134;2023-02-28T05:19:32;0.60;99.90
12408;DHT22;6268;48.188;17.134;2023-02-28T05:22:01;0.50;99.90
12408;DHT22;6268;48.188;17.134;2023-02-28T05:24:30;0.60;99.90
12408;DHT22;6268;48.188;17.134;2023-02-28T05:27:02;0.60;99.90
12408;DHT22;6268;48.188;17.134;2023-02-28T05:29:33;0.60;99.90
12408;DHT22;6268;48.188;17.134;2023-02-28T05:32:11;0.60;99.90
12408;DHT22;6268;48.188;17.134;2023-02-28T05:34:41;0.60;99.90
12408;DHT22;6268;48.188;17.134;2023-02-28T05:37:12;0.60;99.90
12408;DHT22;6268;48.188;17.134;2023-02-28T05:39:42;0.60;99.90
12408;DHT22;6268;48.188;17.134;2023-02-28T05:42:11;0.60;99.90
12408;DHT22;6268;48.188;17.134;2023-02-28T05:44:42;0.70;99.90
12408;DHT22;6268;48.188;17.134;2023-02-28T05:47:11;0.70;99.90
12408;DHT22;6268;48.188;17.134;2023-02-28T05:49:42;0.70;99.90
12408;DHT22;6268;48.188;17.134;2023-02-28T05:52:11;0.70;99.90
12408;DHT22;6268;48.188;17.134;2023-02-28T05:54:40;0.70;99.90
12408;DHT22;6268;48.188;17.134;2023-02-28T05:57:09;0.70;99.90
12408;DHT22;6268;48.188;17.134;2023-02-28T05:59:51;0.70;99.90
12408;DHT22;6268;48.188;17.134;2023-02-28T06:02:20;0.80;99.90
12408;DHT22;6268;48.188;17.134;2023-02-28T06:04:49;0.80;99.90
12408;DHT22;6268;48.188;17.134;2023-02-28T06:07:18;0.90;99.90
12408;DHT22;6268;48.188;17.134;2023-02-28T06:10:06;0.90;99.90
12408;DHT22;6268;48.188;17.134;2023-02-28T06:12:36;1.00;99.90
12408;DHT22;6268;48.188;17.134;2023-02-28T06:15:09;1.10;99.90
12408;DHT22;6268;48.188;17.134;2023-02-28T06:17:41;1.10;99.90
12408;DHT22;6268;48.188;17.134;2023-02-28T06:20:12;1.10;99.90
12408;DHT22;6268;48.188;17.134;2023-02-28T06:22:41;1.20;99.90
12408;DHT22;6268;48.188;17.134;2023-02-28T06:25:10;1.20;99.90
12408;DHT22;6268;48.188;17.134;2023-02-28T06:27:39;1.20;99.90
12408;DHT22;6268;48.188;17.134;2023-02-28T06:30:13;1.20;99.90
12408;DHT22;6268;48.188;17.134;2023-02-28T06:32:42;1.30;99.90
12408;DHT22;6268;48.188;17.134;2023-02-28T06:35:11;1.40;99.90
12408;DHT22;6268;48.188;17.134;2023-02-28T06:37:40;1.40;99.90
12408;DHT22;6268;48.188;17.134;2023-02-28T06:40:12;1.40;99.90
12408;DHT22;6268;48.188;17.134;2023-02-28T06:42:41;1.50;99.90
12408;DHT22;6268;48.188;17.134;2023-02-28T06:45:12;1.50;99.90
12408;DHT22;6268;48.188;17.134;2023-02-28T06:47:41;1.50;99.90
12408;DHT22;6268;48.188;17.134;2023-02-28T06:50:12;1.50;99.90
12408;DHT22;6268;48.188;17.134;2023-02-28T06:52:41;1.50;99.90
12408;DHT22;6268;48.188;17.134;2023-02-28T06:55:10;1.50;99.90
12408;DHT22;6268;48.188;17.134;2023-02-28T06:57:39;1.70;99.90
12408;DHT22;6268;48.188;17.134;2023-02-28T07:00:09;1.60;99.90
12408;DHT22;6268;48.188;17.134;2023-02-28T07:02:40;1.70;99.90
12408;DHT22;6268;48.188;17.134;2023-02-28T07:05:09;1.70;99.90
12408;DHT22;6268;48.188;17.134;2023-02-28T07:07:38;1.70;99.90
12408;DHT22;6268;48.188;17.134;2023-02-28T07:10:11;1.90;99.90
12408;DHT22;6268;48.188;17.134;2023-02-28T07:12:41;2.50;99.90
12408;DHT22;6268;48.188;17.134;2023-02-28T07:15:11;2.90;99.90
12408;DHT22;6268;48.188;17.134;2023-02-28T07:17:41;3.50;99.90
12408;DHT22;6268;48.188;17.134;2023-02-28T07:20:11;4.10;98.60
12408;DHT22;6268;48.188;17.134;2023-02-28T07:22:40;4.30;96.60
12408;DHT22;6268;48.188;17.134;2023-02-28T07:25:09;4.60;96.40
12408;DHT22;6268;48.188;17.134;2023-02-28T07:27:38;5.30;92.30
12408;DHT22;6268;48.188;17.134;2023-02-28T07:30:09;5.30;90.20
12408;DHT22;6268;48.188;17.134;2023-02-28T07:32:40;5.30;89.70
12408;DHT22;6268;48.188;17.134;2023-02-28T07:35:11;5.70;85.80
12408;DHT22;6268;48.188;17.134;2023-02-28T07:37:42;5.70;83.60
12408;DHT22;6268;48.188;17.134;2023-02-28T07:40:12;6.30;80.90
12408;DHT22;6268;48.188;17.134;2023-02-28T07:42:42;6.50;78.10
12408;DHT22;6268;48.188;17.134;2023-02-28T07:45:11;7.00;77.00
12408;DHT22;6268;48.188;17.134;2023-02-28T07:47:42;7.10;72.70
12408;DHT22;6268;48.188;17.134;2023-02-28T07:50:13;6.90;72.30
12408;DHT22;6268;48.188;17.134;2023-02-28T07:52:43;6.90;71.90
12408;DHT22;6268;48.188;17.134;2023-02-28T07:55:12;7.30;71.80
12408;DHT22;6268;48.188;17.134;2023-02-28T07:57:42;7.30;70.40
12408;DHT22;6268;48.188;17.134;2023-02-28T08:00:12;7.30;68.80
12408;DHT22;6268;48.188;17.134;2023-02-28T08:02:43;7.40;68.10
12408;DHT22;6268;48.188;17.134;2023-02-28T08:05:12;7.20;69.10
12408;DHT22;6268;48.188;17.134;2023-02-28T08:07:41;7.30;67.80
12408;DHT22;6268;48.188;17.134;2023-02-28T08:10:10;7.20;69.00
12408;DHT22;6268;48.188;17.134;2023-02-28T08:12:39;7.80;66.90
12408;DHT22;6268;48.188;17.134;2023-02-28T08:15:09;7.80;68.40
12408;DHT22;6268;48.188;17.134;2023-02-28T08:17:38;8.70;64.90
12408;DHT22;6268;48.188;17.134;2023-02-28T08:20:10;8.90;68.60
12408;DHT22;6268;48.188;17.134;2023-02-28T08:22:39;9.10;67.00
12408;DHT22;6268;48.188;17.134;2023-02-28T08:25:11;9.40;65.60
12408;DHT22;6268;48.188;17.134;2023-02-28T08:27:40;9.30;64.20
12408;DHT22;6268;48.188;17.134;2023-02-28T08:30:11;9.50;64.40
12408;DHT22;6268;48.188;17.134;2023-02-28T08:32:41;9.30;64.40
12408;DHT22;6268;48.188;17.134;2023-02-28T08:35:12;9.20;69.30
12408;DHT22;6268;48.188;17.134;2023-02-28T08:37:41;9.40;63.80
12408;DHT22;6268;48.188;17.134;2023-02-28T08:40:10;9.50;62.10
12408;DHT22;6268;48.188;17.134;2023-02-28T08:42:45;8.80;63.20
12408;DHT22;6268;48.188;17.134;2023-02-28T08:45:14;8.70;64.00
12408;DHT22;6268;48.188;17.134;2023-02-28T08:47:43;9.00;64.50
12408;DHT22;6268;48.188;17.134;2023-02-28T08:50:13;9.80;65.20
12408;DHT22;6268;48.188;17.134;2023-02-28T08:52:50;10.70;60.00
12408;DHT22;6268;48.188;17.134;2023-02-28T08:55:18;11.30;58.30
12408;DHT22;6268;48.188;17.134;2023-02-28T08:57:47;10.60;59.00
12408;DHT22;6268;48.188;17.134;2023-02-28T09:00:17;10.90;58.80
12408;DHT22;6268;48.188;17.134;2023-02-28T09:02:46;10.60;58.20
12408;DHT22;6268;48.188;17.134;2023-02-28T09:05:16;11.30;59.60
12408;DHT22;6268;48.188;17.134;2023-02-28T09:07:45;11.50;55.80
12408;DHT22;6268;48.188;17.134;2023-02-28T09:10:15;11.50;56.90
12408;DHT22;6268;48.188;17.134;2023-02-28T09:12:44;10.10;55.80
12408;DHT22;6268;48.188;17.134;2023-02-28T09:15:14;9.40;59.60
12408;DHT22;6268;48.188;17.134;2023-02-28T09:17:43;9.40;59.70
12408;DHT22;6268;48.188;17.134;2023-02-28T09:20:16;9.30;60.00
12408;DHT22;6268;48.188;17.134;2023-02-28T09:22:45;8.70;60.70
12408;DHT22;6268;48.188;17.134;2023-02-28T09:25:18;8.80;64.30
12408;DHT22;6268;48.188;17.134;2023-02-28T09:27:47;8.80;62.60
12408;DHT22;6268;48.188;17.134;2023-02-28T09:30:16;8.60;62.40
12408;DHT22;6268;48.188;17.134;2023-02-28T09:32:46;8.40;64.00
12408;DHT22;6268;48.188;17.134;2023-02-28T09:35:22;8.50;64.30
12408;DHT22;6268;48.188;17.134;2023-02-28T09:37:53;8.70;64.90
12408;DHT22;6268;48.188;17.134;2023-02-28T09:40:24;8.60;64.10
12408;DHT22;6268;48.188;17.134;2023-02-28T09:42:55;9.10;64.10
12408;DHT22;6268;48.188;17.134;2023-02-28T09:45:31;9.50;62.10
12408;DHT22;6268;48.188;17.134;2023-02-28T09:48:11;8.80;62.90
12408;DHT22;6268;48.188;17.134;2023-02-28T09:50:48;8.90;64.00
12408;DHT22;6268;48.188;17.134;2023-02-28T09:53:23;9.00;63.10
12408;DHT22;6268;48.188;17.134;2023-02-28T09:55:59;8.60;65.30
12408;DHT22;6268;48.188;17.134;2023-02-28T09:58:34;8.80;65.10
12408;DHT22;6268;48.188;17.134;2023-02-28T10:01:19;9.10;62.90
12408;DHT22;6268;48.188;17.134;2023-02-28T10:03:57;9.40;64.20
12408;DHT22;6268;48.188;17.134;2023-02-28T10:06:38;10.50;63.60
12408;DHT22;6268;48.188;17.134;2023-02-28T10:09:17;11.90;59.40
12408;DHT22;6268;48.188;17.134;2023-02-28T10:11:51;12.10;56.50
12408;DHT22;6268;48.188;17.134;2023-02-28T10:14:26;11.70;56.30
12408;DHT22;6268;48.188;17.134;2023-02-28T10:17:00;11.90;55.20
12408;DHT22;6268;48.188;17.134;2023-02-28T10:19:38;12.30;60.50
12408;DHT22;6268;48.188;17.134;2023-02-28T10:22:14;12.30;57.40
12408;DHT22;6268;48.188;17.134;2023-02-28T10:24:47;11.50;57.90
12408;DHT22;6268;48.188;17.134;2023-02-28T10:27:22;11.00;59.10
12408;DHT22;6268;48.188;17.134;2023-02-28T10:29:54;11.20;58.60
12408;DHT22;6268;48.188;17.134;2023-02-28T10:32:26;10.60;58.20
12408;DHT22;6268;48.188;17.134;2023-02-28T10:35:00;10.80;58.60
12408;DHT22;6268;48.188;17.134;2023-02-28T10:37:38;10.70;58.60
12408;DHT22;6268;48.188;17.134;2023-02-28T10:40:26;10.90;59.10
12408;DHT22;6268;48.188;17.134;2023-02-28T10:43:00;11.40;57.10
12408;DHT22;6268;48.188;17.134;2023-02-28T10:45:32;10.80;56.50
12408;DHT22;6268;48.188;17.134;2023-02-28T10:48:06;11.30;56.00
12408;DHT22;6268;48.188;17.134;2023-02-28T10:50:55;11.50;55.20
12408;DHT22;6268;48.188;17.134;2023-02-28T10:53:32;12.00;53.90
12408;DHT22;6268;48.188;17.134;2023-02-28T10:56:24;10.90;54.10
12408;DHT22;6268;48.188;17.134;2023-02-28T10:58:56;10.50;56.30
12408;DHT22;6268;48.188;17.134;2023-02-28T11:01:38;10.80;56.20
12408;DHT22;6268;48.188;17.134;2023-02-28T11:04:19;9.90;57.30
12408;DHT22;6268;48.188;17.134;2023-02-28T11:07:05;10.20;56.80
12408;DHT22;6268;48.188;17.134;2023-02-28T11:09:50;10.10;55.70
12408;DHT22;6268;48.188;17.134;2023-02-28T11:12:23;10.10;56.10
12408;DHT22;6268;48.188;17.134;2023-02-28T11:14:57;10.40;56.30
12408;DHT22;6268;48.188;17.134;2023-02-28T11:17:31;10.50;55.20
12408;DHT22;6268;48.188;17.134;2023-02-28T11:20:04;9.90;57.10
12408;DHT22;6268;48.188;17.134;2023-02-28T11:22:38;9.70;57.60
12408;DHT22;6268;48.188;17.134;2023-02-28T11:25:20;10.00;56.80
12408;DHT22;6268;48.188;17.134;2023-02-28T11:27:53;10.70;55.90
12408;DHT22;6268;48.188;17.134;2023-02-28T11:33:28;9.60;57.10
12408;DHT22;6268;48.188;17.134;2023-02-28T11:36:02;9.80;62.40
12408;DHT22;6268;48.188;17.134;2023-02-28T11:38:37;10.00;56.80
12408;DHT22;6268;48.188;17.134;2023-02-28T11:41:20;10.10;55.40
12408;DHT22;6268;48.188;17.134;2023-02-28T11:44:21;10.20;55.00
12408;DHT22;6268;48.188;17.134;2023-02-28T11:47:04;10.20;53.90
12408;DHT22;6268;48.188;17.134;2023-02-28T11:49:48;10.50;54.00
12408;DHT22;6268;48.188;17.134;2023-02-28T11:52:35;10.30;54.40
12408;DHT22;6268;48.188;17.134;2023-02-28T11:55:16;10.20;56.90
12408;DHT22;6268;48.188;17.134;2023-02-28T11:57:59;10.30;57.30
12408;DHT22;6268;48.188;17.134;2023-02-28T12:01:09;9.90;58.00
12408;DHT22;6268;48.188;17.134;2023-02-28T12:03:54;8.90;58.40
12408;DHT22;6268;48.188;17.134;2023-02-28T12:06:33;9.30;59.60
12408;DHT22;6268;48.188;17.134;2023-02-28T12:09:36;9.90;58.30
12408;DHT22;6268;48.188;17.134;2023-02-28T12:12:22;10.20;57.00
12408;DHT22;6268;48.188;17.134;2023-02-28T12:15:24;10.10;55.90
12408;DHT22;6268;48.188;17.134;2023-02-28T12:18:15;9.80;56.90
12408;DHT22;6268;48.188;17.134;2023-02-28T12:20:59;10.00;56.20
12408;DHT22;6268;48.188;17.134;2023-02-28T12:23:54;10.20;55.00
12408;DHT22;6268;48.188;17.134;2023-02-28T12:26:36;9.70;56.00
12408;DHT22;6268;48.188;17.134;2023-02-28T12:29:13;9.70;56.50
12408;DHT22;6268;48.188;17.134;2023-02-28T12:31:50;9.60;56.30
12408;DHT22;6268;48.188;17.134;2023-02-28T12:34:44;9.40;56.60
12408;DHT22;6268;48.188;17.134;2023-02-28T12:37:19;9.70;57.30
12408;DHT22;6268;48.188;17.134;2023-02-28T12:39:55;10.10;57.40
12408;DHT22;6268;48.188;17.134;2023-02-28T12:42:36;9.70;56.50
12408;DHT22;6268;48.188;17.134;2023-02-28T12:45:13;9.50;57.00
12408;DHT22;6268;48.188;17.134;2023-02-28T12:47:52;9.20;56.90
12408;DHT22;6268;48.188;17.134;2023-02-28T12:50:25;9.30;56.70
12408;DHT22;6268;48.188;17.134;2023-02-28T12:53:00;8.80;56.40
12408;DHT22;6268;48.188;17.134;2023-02-28T12:55:40;8.30;57.00
12408;DHT22;6268;48.188;17.134;2023-02-28T12:58:19;8.00;58.10
12408;DHT22;6268;48.188;17.134;2023-02-28T13:01:08;7.80;58.40
12408;DHT22;6268;48.188;17.134;2023-02-28T13:04:23;7.80;59.00
12408;DHT22;6268;48.188;17.134;2023-02-28T13:07:28;8.10;58.80
12408;DHT22;6268;48.188;17.134;2023-02-28T13:10:16;8.20;59.20
12408;DHT22;6268;48.188;17.134;2023-02-28T13:12:50;8.50;59.30
12408;DHT22;6268;48.188;17.134;2023-02-28T13:15:23;8.70;61.00
12408;DHT22;6268;48.188;17.134;2023-02-28T13:17:56;8.80;60.60
12408;DHT22;6268;48.188;17.134;2023-02-28T13:20:33;8.20;59.40
12408;DHT22;6268;48.188;17.134;2023-02-28T13:23:03;8.00;60.00
12408;DHT22;6268;48.188;17.134;2023-02-28T13:25:53;8.10;59.10
12408;DHT22;6268;48.188;17.134;2023-02-28T13:32:31;8.30;57.90
12408;DHT22;6268;48.188;17.134;2023-02-28T13:35:42;8.00;59.20
12408;DHT22;6268;48.188;17.134;2023-02-28T13:38:24;7.70;58.80
12408;DHT22;6268;48.188;17.134;2023-02-28T13:44:23;7.20;59.80
12408;DHT22;6268;48.188;17.134;2023-02-28T13:47:22;7.20;59.30
12408;DHT22;6268;48.188;17.134;2023-02-28T13:50:21;7.10;59.20
12408;DHT22;6268;48.188;17.134;2023-02-28T13:56:31;7.40;59.10
12408;DHT22;6268;48.188;17.134;2023-02-28T13:59:20;7.30;58.50
12408;DHT22;6268;48.188;17.134;2023-02-28T14:02:29;7.10;59.30
12408;DHT22;6268;48.188;17.134;2023-02-28T14:05:14;7.00;59.60
12408;DHT22;6268;48.188;17.134;2023-02-28T14:07:47;7.20;59.50
12408;DHT22;6268;48.188;17.134;2023-02-28T14:10:26;7.00;59.70
12408;DHT22;6268;48.188;17.134;2023-02-28T14:13:03;6.90;59.80
12408;DHT22;6268;48.188;17.134;2023-02-28T14:15:46;6.90;59.80
12408;DHT22;6268;48.188;17.134;2023-02-28T14:18:24;7.30;59.60
12408;DHT22;6268;48.188;17.134;2023-02-28T14:21:01;7.30;58.40
12408;DHT22;6268;48.188;17.134;2023-02-28T14:27:35;7.40;58.70
12408;DHT22;6268;48.188;17.134;2023-02-28T14:30:29;7.10;58.80
12408;DHT22;6268;48.188;17.134;2023-02-28T14:33:22;7.00;58.40
12408;DHT22;6268;48.188;17.134;2023-02-28T14:36:10;6.90;58.80
12408;DHT22;6268;48.188;17.134;2023-02-28T14:38:45;6.90;58.80
12408;DHT22;6268;48.188;17.134;2023-02-28T14:41:23;7.10;58.70
12408;DHT22;6268;48.188;17.134;2023-02-28T14:44:00;7.20;58.70
12408;DHT22;6268;48.188;17.134;2023-02-28T14:46:36;7.20;58.50
12408;DHT22;6268;48.188;17.134;2023-02-28T14:49:13;7.30;58.10
12408;DHT22;6268;48.188;17.134;2023-02-28T14:51:47;7.10;58.70
12408;DHT22;6268;48.188;17.134;2023-02-28T14:54:36;6.90;58.60
12408;DHT22;6268;48.188;17.134;2023-02-28T14:57:05;6.90;59.00
12408;DHT22;6268;48.188;17.134;2023-02-28T14:59:36;6.90;59.30
12408;DHT22;6268;48.188;17.134;2023-02-28T15:02:20;6.90;59.20
12408;DHT22;6268;48.188;17.134;2023-02-28T15:04:57;6.80;59.40
12408;DHT22;6268;48.188;17.134;2023-02-28T15:07:28;6.70;59.60
12408;DHT22;6268;48.188;17.134;2023-02-28T15:10:13;6.70;59.80
12408;DHT22;6268;48.188;17.134;2023-02-28T15:12:51;6.70;59.80
12408;DHT22;6268;48.188;17.134;2023-02-28T15:15:27;6.60;60.40
12408;DHT22;6268;48.188;17.134;2023-02-28T15:18:32;6.60;60.20
12408;DHT22;6268;48.188;17.134;2023-02-28T15:21:12;6.60;60.70
12408;DHT22;6268;48.188;17.134;2023-02-28T15:23:48;6.50;60.80
12408;DHT22;6268;48.188;17.134;2023-02-28T15:26:22;6.40;61.90
12408;DHT22;6268;48.188;17.134;2023-02-28T15:28:58;6.40;61.80
12408;DHT22;6268;48.188;17.134;2023-02-28T15:31:32;6.40;62.10
12408;DHT22;6268;48.188;17.134;2023-02-28T15:34:26;6.60;62.10
12408;DHT22;6268;48.188;17.134;2023-02-28T15:40:15;6.70;61.60
12408;DHT22;6268;48.188;17.134;2023-02-28T15:42:59;6.60;61.50
12408;DHT22;6268;48.188;17.134;2023-02-28T15:45:35;6.40;62.50
12408;DHT22;6268;48.188;17.134;2023-02-28T15:48:17;6.30;62.80
12408;DHT22;6268;48.188;17.134;2023-02-28T15:50:50;6.30;63.20
12408;DHT22;6268;48.188;17.134;2023-02-28T15:53:23;6.30;62.70
12408;DHT22;6268;48.188;17.134;2023-02-28T15:56:02;6.10;63.50
12408;DHT22;6268;48.188;17.134;2023-02-28T15:58:33;6.00;63.40
12408;DHT22;6268;48.188;17.134;2023-02-28T16:01:16;5.90;63.30
12408;DHT22;6268;48.188;17.134;2023-02-28T16:03:51;5.90;63.60
12408;DHT22;6268;48.188;17.134;2023-02-28T16:06:37;5.80;63.10
12408;DHT22;6268;48.188;17.134;2023-02-28T16:09:11;5.80;63.50
12408;DHT22;6268;48.188;17.134;2023-02-28T16:11:44;5.80;63.60
12408;DHT22;6268;48.188;17.134;2023-02-28T16:14:17;5.80;63.40
12408;DHT22;6268;48.188;17.134;2023-02-28T16:16:51;5.80;63.60
12408;DHT22;6268;48.188;17.134;2023-02-28T16:19:23;5.80;64.00
12408;DHT22;6268;48.188;17.134;2023-02-28T16:21:52;5.80;66.10
12408;DHT22;6268;48.188;17.134;2023-02-28T16:24:29;6.10;77.40
12408;DHT22;6268;48.188;17.134;2023-02-28T16:26:58;6.20;75.70
12408;DHT22;6268;48.188;17.134;2023-02-28T16:29:30;6.20;70.60
12408;DHT22;6268;48.188;17.134;2023-02-28T16:32:02;6.20;67.50
12408;DHT22;6268;48.188;17.134;2023-02-28T16:34:34;6.30;66.50
12408;DHT22;6268;48.188;17.134;2023-02-28T16:37:04;6.20;66.00
12408;DHT22;6268;48.188;17.134;2023-02-28T16:39:38;6.10;66.00
12408;DHT22;6268;48.188;17.134;2023-02-28T16:42:10;6.10;66.30
12408;DHT22;6268;48.188;17.134;2023-02-28T16:44:43;6.10;66.80
12408;DHT22;6268;48.188;17.134;2023-02-28T16:47:14;6.00;67.50
12408;DHT22;6268;48.188;17.134;2023-02-28T16:49:44;6.00;67.70
12408;DHT22;6268;48.188;17.134;2023-02-28T16:52:14;5.90;68.00
12408;DHT22;6268;48.188;17.134;2023-02-28T16:54:43;5.90;68.20
12408;DHT22;6268;48.188;17.134;2023-02-28T16:57:18;5.80;68.50
12408;DHT22;6268;48.188;17.134;2023-02-28T16:59:50;5.70;68.80